Kirtland, Ohio
Current Conditions -  °F | °C
As of 7:15 AM on Monday 26 Jan 2015 (Local Time) from KLNN Reporting Station
Overcast Overcast  
Wind Chill: 10°   Ceiling: 1000
Heat Index: 19°   Visibility: 2.5mi
Dew Point: 16°   Wind: 7mph
Humidity: 88%   Direction: 70°ENE
Pressure: 29.83"   Gusts: NA
Location:  41.5761°N, 81.1919°W
Report Text: KLNN 261215Z AUTO 07006KT 2 1/2SM BKN010 OVC032 M07/M09 A2983 RMK AO1 T10711088
Loading
Personal Weather Stations






























Interactive Weather Map New forecast layout! Learn more

10-Day Weather Forecast

Advertisements
Track Severe Weather on mobile